KRKR/RKR METAR and TAF weather

Enter ICAO airport designator
Station Type Date Time Source
KRKR METAR 2021/09/27 07:15 UTC NOAA

KRKR 270715Z AUTO 21004KT 10SM CLR 18/12 A3000 RMK AO2


Station Type Date Time Source
KRKR Decoded METAR 2021/09/27 07:15 UTC NOAA

Poteau, Robert S Kerr Airport, OK, United States (KRKR) 35-01-18N 094-37-17W
Sep 27, 2021 - 03:15 AM EDT / 2021.09.27 0715 UTC
Wind: from the SSW (210 degrees) at 5 MPH (4 KT):0
Visibility: 10 mile(s):0
Sky conditions: clear
Temperature: 64 F (18 C)
Dew Point: 53 F (12 C)
Relative Humidity: 67%
Pressure (altimeter): 30 in. Hg (1015 hPa)
ob: KRKR 270715Z AUTO 21004KT 10SM CLR 18/12 A3000 RMK AO2
cycle: 7

Station Type Date Time Source
KRKR TAF UTC NOAA

Error!

Example: see airport list